sensor_id;sensor_type;location;lat;lon;timestamp;pressure;altitude;pressure_sealevel;temperature;humidity
8637;BME280;4356;49.068;8.658;2023-07-13T00:01:27;99884.34;;;29.18;37.37
8637;BME280;4356;49.068;8.658;2023-07-13T00:03:53;99876.84;;;29.19;37.16
8637;BME280;4356;49.068;8.658;2023-07-13T00:06:18;99878.28;;;29.16;37.21
8637;BME280;4356;49.068;8.658;2023-07-13T00:08:46;99884.91;;;29.15;37.29
8637;BME280;4356;49.068;8.658;2023-07-13T00:11:12;99879.66;;;29.14;37.30
8637;BME280;4356;49.068;8.658;2023-07-13T00:13:38;99887.66;;;29.15;37.46
8637;BME280;4356;49.068;8.658;2023-07-13T00:16:04;99883.56;;;29.13;37.09
8637;BME280;4356;49.068;8.658;2023-07-13T00:18:30;99881.91;;;29.12;37.24
8637;BME280;4356;49.068;8.658;2023-07-13T00:20:56;99884.66;;;29.12;37.40
8637;BME280;4356;49.068;8.658;2023-07-13T00:23:30;99873.88;;;29.10;37.24
8637;BME280;4356;49.068;8.658;2023-07-13T00:25:56;99880.81;;;29.08;37.11
8637;BME280;4356;49.068;8.658;2023-07-13T00:28:22;99873.09;;;29.05;37.31
8637;BME280;4356;49.068;8.658;2023-07-13T00:30:48;99880.28;;;29.06;37.07
8637;BME280;4356;49.068;8.658;2023-07-13T00:33:13;99876.16;;;29.03;37.13
8637;BME280;4356;49.068;8.658;2023-07-13T00:35:38;99875.31;;;29.03;37.40
8637;BME280;4356;49.068;8.658;2023-07-13T00:38:04;99872.56;;;29.03;37.50
8637;BME280;4356;49.068;8.658;2023-07-13T00:40:30;99861.59;;;28.93;37.28
8637;BME280;4356;49.068;8.658;2023-07-13T00:42:58;99874.78;;;29.01;37.50
8637;BME280;4356;49.068;8.658;2023-07-13T00:47:49;99865.44;;;28.97;37.34
8637;BME280;4356;49.068;8.658;2023-07-13T00:50:16;99862.69;;;28.92;37.42
8637;BME280;4356;49.068;8.658;2023-07-13T00:52:46;99875.97;;;28.95;37.29
8637;BME280;4356;49.068;8.658;2023-07-13T00:55:13;99873.75;;;28.92;37.20
8637;BME280;4356;49.068;8.658;2023-07-13T00:57:40;99873.22;;;28.90;37.61
8637;BME280;4356;49.068;8.658;2023-07-13T01:00:07;99874.06;;;28.90;37.53
8637;BME280;4356;49.068;8.658;2023-07-13T01:02:35;99873.22;;;28.90;37.46
8637;BME280;4356;49.068;8.658;2023-07-13T01:05:14;99876.28;;;28.88;37.46
8637;BME280;4356;49.068;8.658;2023-07-13T01:07:41;99864.97;;;28.85;37.61
8637;BME280;4356;49.068;8.658;2023-07-13T01:10:09;99876.88;;;28.85;37.38
8637;BME280;4356;49.068;8.658;2023-07-13T01:12:35;99875.25;;;28.84;37.43
8637;BME280;4356;49.068;8.658;2023-07-13T01:15:01;99872.75;;;28.83;37.32
8637;BME280;4356;49.068;8.658;2023-07-13T01:17:28;99874.72;;;28.82;37.33
8637;BME280;4356;49.068;8.658;2023-07-13T01:19:54;99871.41;;;28.80;37.73
8637;BME280;4356;49.068;8.658;2023-07-13T01:22:20;99866.16;;;28.79;37.55
8637;BME280;4356;49.068;8.658;2023-07-13T01:24:50;99866.44;;;28.77;37.38
8637;BME280;4356;49.068;8.658;2023-07-13T01:27:22;99873.94;;;28.77;37.61
8637;BME280;4356;49.068;8.658;2023-07-13T01:29:50;99868.16;;;28.73;37.40
8637;BME280;4356;49.068;8.658;2023-07-13T01:32:20;99867.31;;;28.73;37.41
8637;BME280;4356;49.068;8.658;2023-07-13T01:34:49;99869.25;;;28.72;37.44
8637;BME280;4356;49.068;8.658;2023-07-13T01:37:15;99855.22;;;28.64;37.69
8637;BME280;4356;49.068;8.658;2023-07-13T01:39:40;99869.31;;;28.67;37.37
8637;BME280;4356;49.068;8.658;2023-07-13T01:42:06;99856.38;;;28.58;37.56
8637;BME280;4356;49.068;8.658;2023-07-13T01:44:32;99874.59;;;28.64;37.68
8637;BME280;4356;49.068;8.658;2023-07-13T01:46:57;99878.19;;;28.64;37.42
8637;BME280;4356;49.068;8.658;2023-07-13T01:49:23;99868.81;;;28.60;37.59
8637;BME280;4356;49.068;8.658;2023-07-13T01:51:48;99875.19;;;28.61;37.55
8637;BME280;4356;49.068;8.658;2023-07-13T01:54:13;99871.03;;;28.58;37.58
8637;BME280;4356;49.068;8.658;2023-07-13T01:56:39;99889.28;;;28.59;37.70
8637;BME280;4356;49.068;8.658;2023-07-13T01:59:05;99878.78;;;28.56;37.80
8637;BME280;4356;49.068;8.658;2023-07-13T02:01:31;99867.22;;;28.49;37.79
8637;BME280;4356;49.068;8.658;2023-07-13T02:03:56;99874.97;;;28.47;37.76
8637;BME280;4356;49.068;8.658;2023-07-13T02:06:21;99881.88;;;28.50;37.63
8637;BME280;4356;49.068;8.658;2023-07-13T02:08:47;99886.28;;;28.51;37.52
8637;BME280;4356;49.068;8.658;2023-07-13T02:11:12;99884.38;;;28.46;37.66
8637;BME280;4356;49.068;8.658;2023-07-13T02:13:38;99875.56;;;28.44;37.68
8637;BME280;4356;49.068;8.658;2023-07-13T02:16:03;99874.72;;;28.43;37.55
8637;BME280;4356;49.068;8.658;2023-07-13T02:18:29;99873.09;;;28.42;37.73
8637;BME280;4356;49.068;8.658;2023-07-13T02:20:54;99878.63;;;28.42;37.90
8637;BME280;4356;49.068;8.658;2023-07-13T02:23:19;99881.63;;;28.41;37.86
8637;BME280;4356;49.068;8.658;2023-07-13T02:25:45;99880.59;;;28.37;37.68
8637;BME280;4356;49.068;8.658;2023-07-13T02:28:11;99881.38;;;28.37;37.65
8637;BME280;4356;49.068;8.658;2023-07-13T02:30:37;99886.91;;;28.37;37.75
8637;BME280;4356;49.068;8.658;2023-07-13T02:33:03;99885.03;;;28.33;37.69
8637;BME280;4356;49.068;8.658;2023-07-13T02:35:29;99876.75;;;28.33;37.92
8637;BME280;4356;49.068;8.658;2023-07-13T02:37:54;99880.88;;;28.30;38.13
8637;BME280;4356;49.068;8.658;2023-07-13T02:40:20;99877.88;;;28.27;37.70
8637;BME280;4356;49.068;8.658;2023-07-13T02:42:45;99884.78;;;28.29;37.90
8637;BME280;4356;49.068;8.658;2023-07-13T02:45:11;99885.88;;;28.28;37.67
8637;BME280;4356;49.068;8.658;2023-07-13T02:47:40;99875.69;;;28.24;37.92
8637;BME280;4356;49.068;8.658;2023-07-13T02:50:06;99877.91;;;28.22;37.73
8637;BME280;4356;49.068;8.658;2023-07-13T02:52:31;99890.63;;;28.23;38.06
8637;BME280;4356;49.068;8.658;2023-07-13T02:54:57;99893.13;;;28.19;38.04
8637;BME280;4356;49.068;8.658;2023-07-13T02:57:22;99900.03;;;28.22;38.02
8637;BME280;4356;49.068;8.658;2023-07-13T02:59:48;99895.63;;;28.16;38.18
8637;BME280;4356;49.068;8.658;2023-07-13T03:02:13;99898.94;;;28.18;38.02
8637;BME280;4356;49.068;8.658;2023-07-13T03:04:38;99894.84;;;28.15;37.90
8637;BME280;4356;49.068;8.658;2023-07-13T03:07:06;99889.31;;;28.15;38.20
8637;BME280;4356;49.068;8.658;2023-07-13T03:09:34;99893.44;;;28.13;37.86
8637;BME280;4356;49.068;8.658;2023-07-13T03:11:59;99892.63;;;28.12;38.05
8637;BME280;4356;49.068;8.658;2023-07-13T03:14:25;99902.03;;;28.11;38.05
8637;BME280;4356;49.068;8.658;2023-07-13T03:16:51;99900.38;;;28.10;38.15
8637;BME280;4356;49.068;8.658;2023-07-13T03:19:17;99891.03;;;28.06;37.89
8637;BME280;4356;49.068;8.658;2023-07-13T03:21:43;99905.94;;;28.05;38.11
8637;BME280;4356;49.068;8.658;2023-07-13T03:24:08;99898.47;;;28.06;38.19
8637;BME280;4356;49.068;8.658;2023-07-13T03:26:34;99902.63;;;28.03;38.07
8637;BME280;4356;49.068;8.658;2023-07-13T03:28:59;99903.19;;;28.00;38.29
8637;BME280;4356;49.068;8.658;2023-07-13T03:31:27;99900.47;;;27.95;38.04
8637;BME280;4356;49.068;8.658;2023-07-13T03:33:54;99906.53;;;27.97;38.34
8637;BME280;4356;49.068;8.658;2023-07-13T03:36:23;99920.88;;;27.99;38.40
8637;BME280;4356;49.068;8.658;2023-07-13T03:38:51;99902.41;;;27.90;38.41
8637;BME280;4356;49.068;8.658;2023-07-13T03:41:17;99910.13;;;27.88;38.58
8637;BME280;4356;49.068;8.658;2023-07-13T03:43:42;99904.66;;;27.83;38.54
8637;BME280;4356;49.068;8.658;2023-07-13T03:46:08;99917.59;;;27.92;38.54
8637;BME280;4356;49.068;8.658;2023-07-13T03:48:34;99918.97;;;27.90;38.55
8637;BME280;4356;49.068;8.658;2023-07-13T03:50:59;99918.13;;;27.89;38.43
8637;BME280;4356;49.068;8.658;2023-07-13T03:53:25;99921.72;;;27.90;38.56
8637;BME280;4356;49.068;8.658;2023-07-13T03:55:51;99922.03;;;27.88;38.44
8637;BME280;4356;49.068;8.658;2023-07-13T04:00:56;99932.53;;;27.86;38.58
8637;BME280;4356;49.068;8.658;2023-07-13T04:03:22;99940.25;;;27.84;38.68
8637;BME280;4356;49.068;8.658;2023-07-13T04:05:48;99942.19;;;27.84;38.70
8637;BME280;4356;49.068;8.658;2023-07-13T04:08:13;99931.16;;;27.79;38.53
8637;BME280;4356;49.068;8.658;2023-07-13T04:10:39;99937.25;;;27.81;38.65
8637;BME280;4356;49.068;8.658;2023-07-13T04:13:05;99939.75;;;27.77;38.76
8637;BME280;4356;49.068;8.658;2023-07-13T04:15:32;99928.94;;;27.76;38.55
8637;BME280;4356;49.068;8.658;2023-07-13T04:17:58;99925.94;;;27.72;38.66
8637;BME280;4356;49.068;8.658;2023-07-13T04:20:25;99943.31;;;27.78;38.85
8637;BME280;4356;49.068;8.658;2023-07-13T04:22:51;99928.19;;;27.70;38.73
8637;BME280;4356;49.068;8.658;2023-07-13T04:25:18;99932.28;;;27.73;38.61
8637;BME280;4356;49.068;8.658;2023-07-13T04:27:43;99938.09;;;27.71;38.59
8637;BME280;4356;49.068;8.658;2023-07-13T04:30:09;99935.63;;;27.70;38.66
8637;BME280;4356;49.068;8.658;2023-07-13T04:32:34;99947.75;;;27.74;38.79
8637;BME280;4356;49.068;8.658;2023-07-13T04:34:59;99950.78;;;27.72;38.61
8637;BME280;4356;49.068;8.658;2023-07-13T04:37:26;99939.22;;;27.65;38.77
8637;BME280;4356;49.068;8.658;2023-07-13T04:39:51;99953.28;;;27.69;38.76
8637;BME280;4356;49.068;8.658;2023-07-13T04:42:17;99958.56;;;27.70;38.64
8637;BME280;4356;49.068;8.658;2023-07-13T04:44:50;99945.31;;;27.62;38.78
8637;BME280;4356;49.068;8.658;2023-07-13T04:47:16;99952.22;;;27.65;38.67
8637;BME280;4356;49.068;8.658;2023-07-13T04:49:42;99954.41;;;27.68;38.84
8637;BME280;4356;49.068;8.658;2023-07-13T04:52:07;99954.69;;;27.66;38.67
8637;BME280;4356;49.068;8.658;2023-07-13T04:54:33;99964.63;;;27.67;38.93
8637;BME280;4356;49.068;8.658;2023-07-13T04:56:59;99969.84;;;27.69;38.78
8637;BME280;4356;49.068;8.658;2023-07-13T04:59:24;99956.38;;;27.57;38.87
8637;BME280;4356;49.068;8.658;2023-07-13T05:01:50;99970.72;;;27.64;38.86
8637;BME280;4356;49.068;8.658;2023-07-13T05:04:15;99964.34;;;27.64;38.86
8637;BME280;4356;49.068;8.658;2023-07-13T05:06:41;99959.41;;;27.61;38.64
8637;BME280;4356;49.068;8.658;2023-07-13T05:09:06;99962.44;;;27.64;38.80
8637;BME280;4356;49.068;8.658;2023-07-13T05:11:33;99963.78;;;27.67;38.89
8637;BME280;4356;49.068;8.658;2023-07-13T05:13:58;99959.69;;;27.59;38.66
8637;BME280;4356;49.068;8.658;2023-07-13T05:16:24;99974.31;;;27.65;38.75
8637;BME280;4356;49.068;8.658;2023-07-13T05:18:49;99979.53;;;27.66;38.46
8637;BME280;4356;49.068;8.658;2023-07-13T05:21:14;99984.22;;;27.66;38.62
8637;BME280;4356;49.068;8.658;2023-07-13T05:23:40;99958.88;;;27.54;38.80
8637;BME280;4356;49.068;8.658;2023-07-13T05:26:07;99984.22;;;27.66;38.82
8637;BME280;4356;49.068;8.658;2023-07-13T05:28:32;99982.31;;;27.66;38.73
8637;BME280;4356;49.068;8.658;2023-07-13T05:30:58;99979.53;;;27.61;38.64
8637;BME280;4356;49.068;8.658;2023-07-13T05:33:24;99985.34;;;27.65;38.71
8637;BME280;4356;49.068;8.658;2023-07-13T05:35:50;99980.63;;;27.65;38.52
8637;BME280;4356;49.068;8.658;2023-07-13T05:38:16;99982.03;;;27.63;38.60
8637;BME280;4356;49.068;8.658;2023-07-13T05:40:45;99975.16;;;27.50;38.24
8637;BME280;4356;49.068;8.658;2023-07-13T05:43:11;99980.44;;;27.47;38.00
8637;BME280;4356;49.068;8.658;2023-07-13T05:45:36;99986.47;;;27.43;38.01
8637;BME280;4356;49.068;8.658;2023-07-13T05:48:02;99982.34;;;27.36;37.82
8637;BME280;4356;49.068;8.658;2023-07-13T05:50:27;99997.00;;;27.31;38.14
8637;BME280;4356;49.068;8.658;2023-07-13T05:52:53;99996.72;;;27.23;38.16
8637;BME280;4356;49.068;8.658;2023-07-13T05:55:20;99989.81;;;27.15;38.25
8637;BME280;4356;49.068;8.658;2023-07-13T05:57:46;99998.09;;;27.10;38.11
8637;BME280;4356;49.068;8.658;2023-07-13T06:00:12;99994.75;;;27.03;38.28
8637;BME280;4356;49.068;8.658;2023-07-13T06:02:38;100001.13;;;26.99;38.13
8637;BME280;4356;49.068;8.658;2023-07-13T06:05:04;100009.66;;;26.97;38.33
8637;BME280;4356;49.068;8.658;2023-07-13T06:07:30;100011.88;;;26.95;38.14
8637;BME280;4356;49.068;8.658;2023-07-13T06:09:58;100003.84;;;26.89;38.36
8637;BME280;4356;49.068;8.658;2023-07-13T06:12:25;100005.53;;;26.85;37.99
8637;BME280;4356;49.068;8.658;2023-07-13T06:14:51;100003.31;;;26.82;37.96
8637;BME280;4356;49.068;8.658;2023-07-13T06:17:16;100007.47;;;26.79;37.85
8637;BME280;4356;49.068;8.658;2023-07-13T06:19:42;100022.31;;;26.78;37.93
8637;BME280;4356;49.068;8.658;2023-07-13T06:22:07;100022.31;;;26.78;37.92
8637;BME280;4356;49.068;8.658;2023-07-13T06:24:33;100019.00;;;26.76;38.05
8637;BME280;4356;49.068;8.658;2023-07-13T06:26:59;100027.56;;;26.75;37.75
8637;BME280;4356;49.068;8.658;2023-07-13T06:29:24;100035.00;;;26.74;37.74
8637;BME280;4356;49.068;8.658;2023-07-13T06:31:52;100024.75;;;26.65;37.87
8637;BME280;4356;49.068;8.658;2023-07-13T06:34:18;100032.47;;;26.68;37.81
8637;BME280;4356;49.068;8.658;2023-07-13T06:36:44;100042.19;;;26.70;37.79
8637;BME280;4356;49.068;8.658;2023-07-13T06:39:09;100040.50;;;26.69;37.79
8637;BME280;4356;49.068;8.658;2023-07-13T06:41:35;100026.41;;;26.61;37.81
8637;BME280;4356;49.068;8.658;2023-07-13T06:44:00;100034.69;;;26.66;37.71
8637;BME280;4356;49.068;8.658;2023-07-13T06:46:28;100048.19;;;26.67;37.42
8637;BME280;4356;49.068;8.658;2023-07-13T06:48:54;100042.09;;;26.65;37.32
8637;BME280;4356;49.068;8.658;2023-07-13T06:51:19;100043.50;;;26.63;37.61
8637;BME280;4356;49.068;8.658;2023-07-13T06:53:44;100051.50;;;26.64;37.33
8637;BME280;4356;49.068;8.658;2023-07-13T06:56:10;100044.59;;;26.62;36.81
8637;BME280;4356;49.068;8.658;2023-07-13T06:58:36;100052.63;;;26.63;36.67
8637;BME280;4356;49.068;8.658;2023-07-13T07:01:03;100039.06;;;26.57;36.76
8637;BME280;4356;49.068;8.658;2023-07-13T07:03:28;100046.53;;;26.61;36.63
8637;BME280;4356;49.068;8.658;2023-07-13T07:05:54;100040.75;;;26.63;36.59
8637;BME280;4356;49.068;8.658;2023-07-13T07:08:24;100047.63;;;26.65;36.21
8637;BME280;4356;49.068;8.658;2023-07-13T07:10:50;100052.91;;;26.67;36.27
8637;BME280;4356;49.068;8.658;2023-07-13T07:13:19;100053.41;;;26.64;36.27
8637;BME280;4356;49.068;8.658;2023-07-13T07:15:44;100056.72;;;26.66;35.86
8637;BME280;4356;49.068;8.658;2023-07-13T07:18:09;100057.88;;;26.70;35.80
8637;BME280;4356;49.068;8.658;2023-07-13T07:20:35;100063.97;;;26.72;36.04
8637;BME280;4356;49.068;8.658;2023-07-13T07:23:00;100061.19;;;26.72;36.04
8637;BME280;4356;49.068;8.658;2023-07-13T07:25:26;100053.50;;;26.74;35.76
8637;BME280;4356;49.068;8.658;2023-07-13T07:27:51;100056.78;;;26.71;36.16
8637;BME280;4356;49.068;8.658;2023-07-13T07:30:17;100068.91;;;26.80;35.81
8637;BME280;4356;49.068;8.658;2023-07-13T07:32:42;100070.59;;;26.86;35.85
8637;BME280;4356;49.068;8.658;2023-07-13T07:35:08;100058.72;;;26.80;36.03
8637;BME280;4356;49.068;8.658;2023-07-13T07:37:34;100070.59;;;26.91;35.95
8637;BME280;4356;49.068;8.658;2023-07-13T07:39:59;100062.59;;;26.89;35.65
8637;BME280;4356;49.068;8.658;2023-07-13T07:42:24;100079.44;;;26.98;35.79
8637;BME280;4356;49.068;8.658;2023-07-13T07:44:50;100070.91;;;26.99;35.81
8637;BME280;4356;49.068;8.658;2023-07-13T07:47:16;100055.44;;;26.93;35.59
8637;BME280;4356;49.068;8.658;2023-07-13T07:49:41;100072.28;;;27.07;35.68
8637;BME280;4356;49.068;8.658;2023-07-13T07:52:07;100077.81;;;27.12;35.35
8637;BME280;4356;49.068;8.658;2023-07-13T07:54:32;100069.53;;;27.12;35.29
8637;BME280;4356;49.068;8.658;2023-07-13T07:56:58;100083.88;;;27.19;35.29
8637;BME280;4356;49.068;8.658;2023-07-13T07:59:23;100076.16;;;27.21;35.28
8637;BME280;4356;49.068;8.658;2023-07-13T08:01:49;100068.97;;;27.20;34.99
8637;BME280;4356;49.068;8.658;2023-07-13T08:04:16;100080.00;;;27.25;35.12
8637;BME280;4356;49.068;8.658;2023-07-13T08:06:41;100077.56;;;27.28;34.93
8637;BME280;4356;49.068;8.658;2023-07-13T08:09:07;100068.44;;;27.23;34.70
8637;BME280;4356;49.068;8.658;2023-07-13T08:11:33;100082.25;;;27.33;34.68
8637;BME280;4356;49.068;8.658;2023-07-13T08:13:59;100084.47;;;27.36;34.58
8637;BME280;4356;49.068;8.658;2023-07-13T08:16:26;100080.34;;;27.38;34.84
8637;BME280;4356;49.068;8.658;2023-07-13T08:18:51;100083.66;;;27.40;34.58
8637;BME280;4356;49.068;8.658;2023-07-13T08:21:17;100082.00;;;27.45;34.53
8637;BME280;4356;49.068;8.658;2023-07-13T08:23:45;100088.59;;;27.49;34.39
8637;BME280;4356;49.068;8.658;2023-07-13T08:26:11;100081.72;;;27.51;34.44
8637;BME280;4356;49.068;8.658;2023-07-13T08:28:36;100075.34;;;27.51;34.51
8637;BME280;4356;49.068;8.658;2023-07-13T08:31:06;100078.13;;;27.56;34.07
8637;BME280;4356;49.068;8.658;2023-07-13T08:33:35;100078.41;;;27.59;33.93
8637;BME280;4356;49.068;8.658;2023-07-13T08:36:01;100076.16;;;27.61;34.19
8637;BME280;4356;49.068;8.658;2023-07-13T08:38:27;100074.78;;;27.64;33.86
8637;BME280;4356;49.068;8.658;2023-07-13T08:40:54;100075.34;;;27.66;33.56
8637;BME280;4356;49.068;8.658;2023-07-13T08:43:34;100065.94;;;27.67;33.62
8637;BME280;4356;49.068;8.658;2023-07-13T08:48:39;100083.34;;;27.77;33.57
8637;BME280;4356;49.068;8.658;2023-07-13T08:51:35;100065.94;;;27.77;33.71
8637;BME280;4356;49.068;8.658;2023-07-13T08:54:11;100076.97;;;27.82;33.38
8637;BME280;4356;49.068;8.658;2023-07-13T08:56:39;100079.44;;;27.83;33.63
8637;BME280;4356;49.068;8.658;2023-07-13T08:59:16;100070.06;;;27.84;33.17
8637;BME280;4356;49.068;8.658;2023-07-13T09:04:22;100074.19;;;27.92;32.81
8637;BME280;4356;49.068;8.658;2023-07-13T09:07:09;100075.59;;;27.94;33.22
8637;BME280;4356;49.068;8.658;2023-07-13T09:09:50;100075.84;;;27.98;33.05
8637;BME280;4356;49.068;8.658;2023-07-13T09:12:35;100076.97;;;28.02;32.87
8637;BME280;4356;49.068;8.658;2023-07-13T09:15:17;100074.47;;;28.00;32.78
8637;BME280;4356;49.068;8.658;2023-07-13T09:17:50;100063.44;;;28.00;32.59
8637;BME280;4356;49.068;8.658;2023-07-13T09:20:28;100075.00;;;28.07;32.51
8637;BME280;4356;49.068;8.658;2023-07-13T09:22:56;100075.84;;;28.08;32.45
8637;BME280;4356;49.068;8.658;2023-07-13T09:25:31;100082.72;;;28.15;32.42
8637;BME280;4356;49.068;8.658;2023-07-13T09:28:10;100070.28;;;28.18;32.42
8637;BME280;4356;49.068;8.658;2023-07-13T09:31:07;100070.25;;;28.23;32.35
8637;BME280;4356;49.068;8.658;2023-07-13T09:33:39;100061.94;;;28.23;32.19
8637;BME280;4356;49.068;8.658;2023-07-13T09:36:34;100070.25;;;28.28;32.14
8637;BME280;4356;49.068;8.658;2023-07-13T09:41:53;100081.25;;;28.38;32.05
8637;BME280;4356;49.068;8.658;2023-07-13T09:46:56;100079.28;;;28.43;31.92
8637;BME280;4356;49.068;8.658;2023-07-13T09:49:27;100075.69;;;28.43;31.38
8637;BME280;4356;49.068;8.658;2023-07-13T09:52:04;100067.97;;;28.40;30.75
8637;BME280;4356;49.068;8.658;2023-07-13T09:54:33;100064.94;;;28.36;30.78
8637;BME280;4356;49.068;8.658;2023-07-13T09:57:00;100062.22;;;28.31;30.74
8637;BME280;4356;49.068;8.658;2023-07-13T09:59:32;100073.53;;;28.35;30.87
8637;BME280;4356;49.068;8.658;2023-07-13T10:01:58;100071.31;;;28.37;30.83
8637;BME280;4356;49.068;8.658;2023-07-13T10:04:41;100075.16;;;28.41;31.09
8637;BME280;4356;49.068;8.658;2023-07-13T10:07:12;100066.59;;;28.42;30.67
8637;BME280;4356;49.068;8.658;2023-07-13T10:09:38;100076.53;;;28.43;30.64
8637;BME280;4356;49.068;8.658;2023-07-13T10:12:12;100034.78;;;28.45;30.90
8637;BME280;4356;49.068;8.658;2023-07-13T10:14:38;100069.31;;;28.48;30.72
8637;BME280;4356;49.068;8.658;2023-07-13T10:17:05;100060.19;;;28.47;30.48
8637;BME280;4356;49.068;8.658;2023-07-13T10:19:35;100063.78;;;28.53;30.51
8637;BME280;4356;49.068;8.658;2023-07-13T10:22:05;100058.78;;;28.60;30.32
8637;BME280;4356;49.068;8.658;2023-07-13T10:24:39;100056.28;;;28.63;30.30
8637;BME280;4356;49.068;8.658;2023-07-13T10:27:34;100063.72;;;28.68;30.37
8637;BME280;4356;49.068;8.658;2023-07-13T10:32:45;100058.44;;;28.71;30.11
8637;BME280;4356;49.068;8.658;2023-07-13T10:35:14;100054.50;;;28.77;30.06
8637;BME280;4356;49.068;8.658;2023-07-13T10:40:22;100064.16;;;28.85;29.72
8637;BME280;4356;49.068;8.658;2023-07-13T10:42:51;100057.53;;;28.86;29.68
8637;BME280;4356;49.068;8.658;2023-07-13T10:45:21;100059.75;;;28.84;29.79
8637;BME280;4356;49.068;8.658;2023-07-13T10:47:48;100045.91;;;28.84;29.62
8637;BME280;4356;49.068;8.658;2023-07-13T10:50:19;100053.84;;;28.95;29.42
8637;BME280;4356;49.068;8.658;2023-07-13T10:52:50;100052.75;;;28.96;29.57
8637;BME280;4356;49.068;8.658;2023-07-13T10:55:54;100055.75;;;29.00;29.63
8637;BME280;4356;49.068;8.658;2023-07-13T10:58:29;100059.91;;;29.02;29.54
8637;BME280;4356;49.068;8.658;2023-07-13T11:01:11;100054.38;;;29.02;29.36
8637;BME280;4356;49.068;8.658;2023-07-13T11:04:04;100048.25;;;29.05;29.28
8637;BME280;4356;49.068;8.658;2023-07-13T11:09:40;100043.53;;;29.11;29.49
8637;BME280;4356;49.068;8.658;2023-07-13T11:12:48;100048.47;;;29.14;29.30
8637;BME280;4356;49.068;8.658;2023-07-13T11:17:50;100040.44;;;29.17;29.38
8637;BME280;4356;49.068;8.658;2023-07-13T11:22:53;100033.75;;;29.23;28.96
8637;BME280;4356;49.068;8.658;2023-07-13T11:25:34;100032.34;;;29.26;29.05
8637;BME280;4356;49.068;8.658;2023-07-13T11:28:06;100037.28;;;29.29;29.10
8637;BME280;4356;49.068;8.658;2023-07-13T11:30:39;100037.53;;;29.32;28.97
8637;BME280;4356;49.068;8.658;2023-07-13T11:41:31;100030.84;;;29.38;28.99
8637;BME280;4356;49.068;8.658;2023-07-13T11:44:11;100034.41;;;29.39;28.96
8637;BME280;4356;49.068;8.658;2023-07-13T11:46:37;100031.66;;;29.39;28.79
8637;BME280;4356;49.068;8.658;2023-07-13T11:49:05;100039.66;;;29.46;28.76
8637;BME280;4356;49.068;8.658;2023-07-13T11:51:34;100037.69;;;29.46;29.05
8637;BME280;4356;49.068;8.658;2023-07-13T11:54:05;100040.97;;;29.48;28.98
8637;BME280;4356;49.068;8.658;2023-07-13T11:56:33;100033.81;;;29.47;28.66
8637;BME280;4356;49.068;8.658;2023-07-13T11:59:04;100024.13;;;29.45;28.69
8637;BME280;4356;49.068;8.658;2023-07-13T12:01:32;100029.38;;;29.46;28.99
8637;BME280;4356;49.068;8.658;2023-07-13T12:04:00;100026.03;;;29.49;28.57
8637;BME280;4356;49.068;8.658;2023-07-13T12:06:29;100029.88;;;29.53;28.86
8637;BME280;4356;49.068;8.658;2023-07-13T12:08:57;100031.81;;;29.53;28.76
8637;BME280;4356;49.068;8.658;2023-07-13T12:11:23;100037.91;;;29.55;28.74
8637;BME280;4356;49.068;8.658;2023-07-13T12:13:49;100026.75;;;29.60;28.53
8637;BME280;4356;49.068;8.658;2023-07-13T12:16:20;100037.84;;;29.60;28.93
8637;BME280;4356;49.068;8.658;2023-07-13T12:18:48;100035.84;;;29.65;28.74
8637;BME280;4356;49.068;8.658;2023-07-13T12:21:17;100036.38;;;29.67;28.94
8637;BME280;4356;49.068;8.658;2023-07-13T12:23:44;100043.28;;;29.70;28.82
8637;BME280;4356;49.068;8.658;2023-07-13T12:26:12;100037.19;;;29.73;28.92
8637;BME280;4356;49.068;8.658;2023-07-13T12:28:43;100035.50;;;29.77;28.70
8637;BME280;4356;49.068;8.658;2023-07-13T12:34:07;100028.81;;;29.78;28.83
8637;BME280;4356;49.068;8.658;2023-07-13T12:36:36;100035.13;;;29.83;28.75
8637;BME280;4356;49.068;8.658;2023-07-13T12:39:15;100030.97;;;29.86;28.98
8637;BME280;4356;49.068;8.658;2023-07-13T12:41:41;100037.00;;;29.88;28.52
8637;BME280;4356;49.068;8.658;2023-07-13T12:44:15;100038.66;;;29.89;28.52
8637;BME280;4356;49.068;8.658;2023-07-13T12:46:52;100042.78;;;29.91;28.53
8637;BME280;4356;49.068;8.658;2023-07-13T12:49:23;100048.84;;;29.93;28.31
8637;BME280;4356;49.068;8.658;2023-07-13T12:51:59;100045.50;;;29.96;28.21
8637;BME280;4356;49.068;8.658;2023-07-13T12:54:25;100042.16;;;29.99;28.59
8637;BME280;4356;49.068;8.658;2023-07-13T12:56:53;100042.69;;;30.01;28.37
8637;BME280;4356;49.068;8.658;2023-07-13T12:59:21;100042.38;;;30.03;28.59
8637;BME280;4356;49.068;8.658;2023-07-13T13:01:48;100029.66;;;30.02;28.66
8637;BME280;4356;49.068;8.658;2023-07-13T13:04:14;100028.81;;;30.01;28.10
8637;BME280;4356;49.068;8.658;2023-07-13T13:06:40;100037.59;;;30.08;28.09
8637;BME280;4356;49.068;8.658;2023-07-13T13:09:13;100034.53;;;30.10;28.34
8637;BME280;4356;49.068;8.658;2023-07-13T13:11:40;100037.53;;;30.13;28.20
8637;BME280;4356;49.068;8.658;2023-07-13T13:14:06;100041.69;;;30.16;28.48
8637;BME280;4356;49.068;8.658;2023-07-13T13:16:34;100048.06;;;30.16;28.19
8637;BME280;4356;49.068;8.658;2023-07-13T13:19:13;100041.13;;;30.14;28.47
8637;BME280;4356;49.068;8.658;2023-07-13T13:21:39;100047.22;;;30.16;28.41
8637;BME280;4356;49.068;8.658;2023-07-13T13:24:16;100045.50;;;30.20;28.56
8637;BME280;4356;49.068;8.658;2023-07-13T13:26:44;100044.97;;;30.18;28.14
8637;BME280;4356;49.068;8.658;2023-07-13T13:29:19;100049.09;;;30.20;28.09
8637;BME280;4356;49.068;8.658;2023-07-13T13:31:44;100037.75;;;30.17;27.93
8637;BME280;4356;49.068;8.658;2023-07-13T13:34:12;100036.91;;;30.21;28.24
8637;BME280;4356;49.068;8.658;2023-07-13T13:36:39;100024.75;;;30.17;28.12
8637;BME280;4356;49.068;8.658;2023-07-13T13:39:28;100030.22;;;30.22;28.06
8637;BME280;4356;49.068;8.658;2023-07-13T13:41:55;100025.81;;;30.21;27.81
8637;BME280;4356;49.068;8.658;2023-07-13T13:44:21;100024.13;;;30.25;28.08
8637;BME280;4356;49.068;8.658;2023-07-13T13:46:52;100019.38;;;30.26;27.46
8637;BME280;4356;49.068;8.658;2023-07-13T13:49:26;100018.59;;;30.25;27.33
8637;BME280;4356;49.068;8.658;2023-07-13T13:51:53;100027.44;;;30.27;27.65
8637;BME280;4356;49.068;8.658;2023-07-13T13:54:19;100018.03;;;30.23;27.15
8637;BME280;4356;49.068;8.658;2023-07-13T13:56:47;100029.38;;;30.27;27.58
8637;BME280;4356;49.068;8.658;2023-07-13T13:59:13;100031.31;;;30.26;27.36
8637;BME280;4356;49.068;8.658;2023-07-13T14:01:46;100026.91;;;30.25;27.26